Beltrami, Minnesota
Current Conditions -  °F | °C
As of 12:54 PM on Wednesday 26 Nov 2014 (Local Time) from KCKN Reporting Station
Clear Clear  
Wind Chill: -18°   Ceiling: Unl
Heat Index:   Visibility: 10mi
Dew Point: -6°   Wind: 15mph
Humidity: 72%   Direction: 350°N
Pressure: 30.44"   Gusts: 18mph
Location:  47.54°N, 96.53°W
Report Text: KCKN 261854Z AUTO 35013G16KT 10SM CLR M17/M21 A3044 RMK AO2
Loading
Personal Weather Stations






























Interactive Weather Map New forecast layout! Learn more

10-Day Weather Forecast

Advertisements
Track Severe Weather on mobile